createdAt,value
2019-02-15T00:03:49.863Z,0.00
2019-02-15T00:08:53.651Z,1.00
2019-02-15T00:13:57.448Z,1.00
2019-02-15T00:19:20.202Z,1.00
2019-02-15T00:24:24.090Z,0.00
2019-02-15T00:29:27.907Z,0.50
2019-02-15T00:34:31.745Z,1.00
2019-02-15T00:39:35.527Z,0.50
2019-02-15T00:44:39.313Z,1.00
2019-02-15T00:49:48.873Z,1.00
2019-02-15T00:55:09.576Z,0.25
2019-02-15T01:00:30.849Z,0.25
2019-02-15T01:06:05.526Z,0.00
2019-02-15T01:11:20.779Z,0.00
2019-02-15T01:16:24.542Z,0.25
2019-02-15T01:21:28.399Z,0.00
2019-02-15T01:26:42.311Z,0.00
2019-02-15T01:32:11.153Z,0.00
2019-02-15T01:37:33.767Z,1.00
2019-02-15T01:43:02.384Z,0.00
2019-02-15T01:48:06.218Z,0.00
2019-02-15T01:53:10.082Z,0.00
2019-02-15T01:58:13.844Z,1.00
2019-02-15T02:03:17.643Z,0.00
2019-02-15T02:08:24.909Z,0.00
2019-02-15T02:13:28.682Z,0.50
2019-02-15T02:18:32.466Z,1.00
2019-02-15T02:23:36.255Z,0.00
2019-02-15T02:28:40.058Z,0.00
2019-02-15T02:33:43.853Z,0.60
2019-02-15T02:38:47.683Z,0.00
2019-02-15T02:43:59.398Z,0.60
2019-02-15T02:48:57.014Z,1.00
2019-02-15T02:54:00.842Z,0.80
2019-02-15T02:59:04.642Z,0.00
2019-02-15T03:04:08.424Z,1.00
2019-02-15T03:09:12.243Z,0.00
2019-02-15T03:14:16.054Z,0.25
2019-02-15T03:19:19.851Z,0.00
2019-02-15T03:24:23.665Z,0.20
2019-02-15T03:29:27.455Z,0.00
2019-02-15T03:34:31.290Z,0.00
2019-02-15T03:39:42.333Z,0.00
2019-02-15T03:44:46.142Z,0.00
2019-02-15T03:49:50.044Z,0.00
2019-02-15T03:54:53.827Z,0.00
2019-02-15T03:59:57.605Z,0.25
2019-02-15T04:05:01.399Z,0.00
2019-02-15T04:10:07.375Z,0.00
2019-02-15T04:15:11.152Z,0.00
2019-02-15T04:20:14.939Z,0.00
2019-02-15T04:25:18.695Z,0.00
2019-02-15T04:30:22.470Z,0.00
2019-02-15T04:35:26.259Z,0.00
2019-02-15T04:40:30.028Z,0.00
2019-02-15T04:45:33.958Z,0.00
2019-02-15T04:50:37.733Z,0.00
2019-02-15T04:55:42.803Z,0.40
2019-02-15T05:00:46.593Z,0.75
2019-02-15T05:05:50.437Z,1.00
2019-02-15T05:10:54.224Z,1.00
2019-02-15T05:15:58.053Z,1.00
2019-02-15T05:21:01.819Z,0.80
2019-02-15T05:26:05.594Z,0.00
2019-02-15T05:31:09.386Z,0.25
2019-02-15T05:36:13.167Z,0.20
2019-02-15T05:41:16.932Z,1.00
2019-02-15T05:46:20.689Z,1.00
2019-02-15T05:51:24.473Z,0.50
2019-02-15T05:56:28.247Z,1.00
2019-02-15T06:01:32.104Z,1.00
2019-02-15T06:06:35.886Z,0.80
2019-02-15T06:11:39.692Z,1.00
2019-02-15T06:16:43.463Z,1.00
2019-02-15T06:21:47.256Z,1.00
2019-02-15T06:26:51.039Z,0.60
2019-02-15T06:31:54.803Z,1.00
2019-02-15T06:36:58.586Z,1.00
2019-02-15T06:42:02.350Z,0.00
2019-02-15T06:47:06.116Z,1.00
2019-02-15T06:52:09.895Z,1.00
2019-02-15T06:57:13.663Z,1.00
2019-02-15T07:02:30.666Z,1.00
2019-02-15T07:07:34.445Z,0.40
2019-02-15T07:12:38.201Z,1.00
2019-02-15T07:17:41.977Z,1.00
2019-02-15T07:22:46.194Z,0.80
2019-02-15T07:27:49.972Z,1.00
2019-02-15T07:32:53.767Z,1.00
2019-02-15T07:37:57.553Z,1.00
2019-02-15T07:43:01.342Z,0.00
2019-02-15T07:48:05.121Z,10.75
2019-02-15T07:53:09.230Z,10.80
2019-02-15T07:58:13.110Z,11.00
2019-02-15T08:03:16.999Z,8.60
2019-02-15T08:08:20.780Z,9.50
2019-02-15T08:13:24.558Z,9.00
2019-02-15T08:18:28.361Z,7.80
2019-02-15T08:23:32.150Z,7.60
2019-02-15T08:28:35.952Z,6.00
2019-02-15T08:33:39.732Z,6.00
2019-02-15T08:38:43.527Z,7.50
2019-02-15T08:43:47.321Z,5.00
2019-02-15T08:48:51.103Z,3.80
2019-02-15T08:53:54.901Z,4.50
2019-02-15T08:58:58.876Z,5.00
2019-02-15T09:04:02.649Z,5.50
2019-02-15T09:09:06.680Z,5.00
2019-02-15T09:14:10.455Z,5.00
2019-02-15T09:19:14.239Z,4.80
2019-02-15T09:24:18.016Z,3.00
2019-02-15T09:29:21.783Z,5.00
2019-02-15T09:34:25.591Z,3.50
2019-02-15T09:39:29.360Z,3.00
2019-02-15T09:44:33.142Z,3.00
2019-02-15T09:49:36.914Z,3.25
2019-02-15T09:54:40.724Z,3.75
2019-02-15T09:59:44.522Z,3.00
2019-02-15T10:04:48.313Z,2.20
2019-02-15T10:09:52.090Z,2.75
2019-02-15T10:14:55.865Z,3.00
2019-02-15T10:19:59.637Z,2.25
2019-02-15T10:25:03.490Z,3.20
2019-02-15T10:30:07.859Z,2.60
2019-02-15T10:35:11.679Z,2.60
2019-02-15T10:40:15.450Z,2.00
2019-02-15T10:45:19.213Z,2.00
2019-02-15T10:50:23.006Z,2.60
2019-02-15T10:55:26.772Z,3.00
2019-02-15T11:00:30.554Z,2.00
2019-02-15T11:05:34.333Z,4.00
2019-02-15T11:10:38.096Z,3.50
2019-02-15T11:15:41.884Z,3.00
2019-02-15T11:20:45.660Z,2.75
2019-02-15T11:25:49.433Z,3.00
2019-02-15T11:30:53.197Z,3.00
2019-02-15T11:35:56.966Z,4.00
2019-02-15T11:41:00.751Z,2.25
2019-02-15T11:46:04.515Z,3.25
2019-02-15T11:51:08.294Z,3.00
2019-02-15T11:56:12.072Z,3.00
2019-02-15T12:01:15.842Z,4.00
2019-02-15T12:06:19.608Z,2.00
2019-02-15T12:11:23.371Z,3.00
2019-02-15T12:16:27.153Z,2.00
2019-02-15T12:21:30.922Z,3.25
2019-02-15T12:26:34.690Z,3.00
2019-02-15T12:31:38.469Z,3.00
2019-02-15T12:36:42.295Z,2.60
2019-02-15T12:41:46.080Z,2.25
2019-02-15T12:46:49.847Z,3.00
2019-02-15T12:51:53.630Z,2.00
2019-02-15T12:56:57.401Z,2.20
2019-02-15T13:02:01.179Z,2.00
2019-02-15T13:07:04.940Z,1.50
2019-02-15T13:12:08.713Z,3.00
2019-02-15T13:17:12.489Z,2.00
2019-02-15T13:22:16.266Z,2.00
2019-02-15T13:27:20.048Z,2.00
2019-02-15T13:32:23.834Z,1.80
2019-02-15T13:37:27.617Z,1.00
2019-02-15T13:42:32.732Z,2.80
2019-02-15T13:47:36.529Z,2.00
2019-02-15T13:52:40.382Z,2.00
2019-02-15T13:57:44.205Z,1.20
2019-02-15T14:02:48.001Z,2.00
2019-02-15T14:07:51.784Z,2.00
2019-02-15T14:12:55.563Z,2.25
2019-02-15T14:17:59.373Z,2.00
2019-02-15T14:23:03.170Z,1.00
2019-02-15T14:28:06.961Z,1.80
2019-02-15T14:33:10.733Z,1.00
2019-02-15T14:38:14.507Z,2.00
2019-02-15T14:43:18.291Z,1.00
2019-02-15T14:48:22.078Z,1.25
2019-02-15T14:53:25.835Z,1.75
2019-02-15T14:58:29.623Z,2.00
2019-02-15T15:03:33.438Z,2.00
2019-02-15T15:08:37.303Z,1.00
2019-02-15T15:13:41.185Z,2.00
2019-02-15T15:18:44.991Z,1.25
2019-02-15T15:23:48.869Z,1.00
2019-02-15T15:28:54.674Z,2.00
2019-02-15T15:33:58.456Z,1.00
2019-02-15T15:39:17.919Z,1.00
2019-02-15T15:44:21.769Z,2.00
2019-02-15T15:49:25.541Z,2.00
2019-02-15T15:54:29.319Z,2.00
2019-02-15T15:59:33.071Z,1.75
2019-02-15T16:04:36.920Z,2.00
2019-02-15T16:09:40.708Z,2.00
2019-02-15T16:14:44.477Z,2.00
2019-02-15T16:19:49.908Z,2.00
2019-02-15T16:24:53.783Z,2.00
2019-02-15T16:29:57.583Z,1.80
2019-02-15T16:35:01.369Z,1.60
2019-02-15T16:40:06.868Z,1.80
2019-02-15T16:45:12.442Z,2.00
2019-02-15T16:50:16.230Z,1.00
2019-02-15T16:55:20.216Z,1.40
2019-02-15T17:00:23.985Z,2.00
2019-02-15T17:05:27.764Z,1.00
2019-02-15T17:10:31.554Z,1.00
2019-02-15T17:15:35.454Z,2.75
2019-02-15T17:20:39.223Z,6.25
2019-02-15T17:25:43.016Z,5.50
2019-02-15T17:30:46.890Z,3.00
2019-02-15T17:35:50.783Z,4.00
2019-02-15T17:40:54.580Z,3.00
2019-02-15T17:45:58.380Z,3.00
2019-02-15T17:51:02.120Z,3.25
2019-02-15T17:56:05.898Z,4.00
2019-02-15T18:01:09.676Z,3.20
2019-02-15T18:06:13.458Z,3.00
2019-02-15T18:11:17.244Z,3.50
2019-02-15T18:16:21.031Z,3.00
2019-02-15T18:21:24.807Z,3.60
2019-02-15T18:26:28.587Z,4.00
2019-02-15T18:31:32.371Z,4.00
2019-02-15T18:36:36.150Z,4.00
2019-02-15T18:41:39.920Z,3.60
2019-02-15T18:46:43.690Z,4.00
2019-02-15T18:51:47.458Z,4.00
2019-02-15T18:56:51.245Z,5.00
2019-02-15T19:01:55.085Z,4.00
2019-02-15T19:06:58.871Z,5.00
2019-02-15T19:12:02.647Z,4.00
2019-02-15T19:17:06.436Z,6.00
2019-02-15T19:22:10.206Z,5.50
2019-02-15T19:27:13.975Z,5.00
2019-02-15T19:32:17.926Z,4.20
2019-02-15T19:37:22.190Z,4.50
2019-02-15T19:42:26.186Z,4.00
2019-02-15T19:47:29.972Z,5.00
2019-02-15T19:52:33.750Z,4.00
2019-02-15T19:57:37.552Z,5.00
2019-02-15T20:02:41.493Z,5.00
2019-02-15T20:07:45.281Z,4.20
2019-02-15T20:12:50.165Z,7.25
2019-02-15T20:17:54.007Z,7.50
2019-02-15T20:22:57.837Z,4.50
2019-02-15T20:28:01.630Z,5.00
2019-02-15T20:33:05.415Z,7.00
2019-02-15T20:38:09.218Z,4.40
2019-02-15T20:43:12.990Z,5.40
2019-02-15T20:48:16.756Z,4.25
2019-02-15T20:53:20.528Z,5.00
2019-02-15T20:58:24.313Z,5.20
2019-02-15T21:03:28.096Z,7.40
2019-02-15T21:08:31.881Z,5.00
2019-02-15T21:13:35.672Z,6.50
2019-02-15T21:18:39.470Z,7.00
2019-02-15T21:23:43.337Z,5.00
2019-02-15T21:28:47.157Z,5.80
2019-02-15T21:33:51.082Z,7.00
2019-02-15T21:38:54.862Z,6.25
2019-02-15T21:43:58.659Z,6.75
2019-02-15T21:49:02.442Z,4.00
2019-02-15T21:54:06.205Z,5.50
2019-02-15T21:59:09.982Z,6.00
2019-02-15T22:04:13.812Z,6.20
2019-02-15T22:09:17.705Z,6.00
2019-02-15T22:14:21.516Z,4.00
2019-02-15T22:19:25.267Z,6.00
2019-02-15T22:24:29.189Z,3.40
2019-02-15T22:29:32.965Z,3.50
2019-02-15T22:34:36.745Z,3.75
2019-02-15T22:39:40.530Z,4.00
2019-02-15T22:44:44.304Z,4.20
2019-02-15T22:49:48.306Z,4.00
2019-02-15T22:54:52.180Z,3.00
2019-02-15T22:59:55.966Z,4.00
2019-02-15T23:04:59.752Z,4.00
2019-02-15T23:10:05.437Z,3.75
2019-02-15T23:15:09.259Z,3.40
2019-02-15T23:20:13.044Z,4.75
2019-02-15T23:25:16.808Z,3.80
2019-02-15T23:30:20.760Z,3.80
2019-02-15T23:35:24.636Z,3.75
2019-02-15T23:40:28.422Z,4.00
2019-02-15T23:45:32.190Z,3.80
2019-02-15T23:50:35.998Z,4.20
2019-02-15T23:55:39.774Z,4.00
